sensor_id;sensor_type;location;lat;lon;timestamp;temperature;humidity
6443;DHT22;3254;47.372;8.512;2023-09-08T00:02:12;19.40;1.00
6443;DHT22;3254;47.372;8.512;2023-09-08T00:04:38;19.40;1.00
6443;DHT22;3254;47.372;8.512;2023-09-08T00:07:05;19.30;1.00
6443;DHT22;3254;47.372;8.512;2023-09-08T00:09:30;19.30;1.00
6443;DHT22;3254;47.372;8.512;2023-09-08T00:11:57;19.20;1.00
6443;DHT22;3254;47.372;8.512;2023-09-08T00:14:22;19.20;1.00
6443;DHT22;3254;47.372;8.512;2023-09-08T00:16:48;19.20;1.00
6443;DHT22;3254;47.372;8.512;2023-09-08T00:19:14;19.10;1.00
6443;DHT22;3254;47.372;8.512;2023-09-08T00:21:39;19.00;1.00
6443;DHT22;3254;47.372;8.512;2023-09-08T00:24:08;18.90;1.00
6443;DHT22;3254;47.372;8.512;2023-09-08T00:26:34;18.90;1.00
6443;DHT22;3254;47.372;8.512;2023-09-08T00:29:00;18.90;1.00
6443;DHT22;3254;47.372;8.512;2023-09-08T00:31:25;18.90;1.00
6443;DHT22;3254;47.372;8.512;2023-09-08T00:33:51;18.90;1.00
6443;DHT22;3254;47.372;8.512;2023-09-08T00:36:17;19.00;1.00
6443;DHT22;3254;47.372;8.512;2023-09-08T00:38:46;19.00;1.00
6443;DHT22;3254;47.372;8.512;2023-09-08T00:41:11;18.90;1.00
6443;DHT22;3254;47.372;8.512;2023-09-08T00:43:37;18.90;1.00
6443;DHT22;3254;47.372;8.512;2023-09-08T00:46:02;18.90;1.00
6443;DHT22;3254;47.372;8.512;2023-09-08T00:48:30;19.00;1.00
6443;DHT22;3254;47.372;8.512;2023-09-08T00:50:57;18.90;1.00
6443;DHT22;3254;47.372;8.512;2023-09-08T00:53:23;18.90;1.00
6443;DHT22;3254;47.372;8.512;2023-09-08T00:55:50;18.80;1.00
6443;DHT22;3254;47.372;8.512;2023-09-08T00:58:15;18.70;1.00
6443;DHT22;3254;47.372;8.512;2023-09-08T01:00:41;18.70;2.30
6443;DHT22;3254;47.372;8.512;2023-09-08T01:03:07;18.70;3.20
6443;DHT22;3254;47.372;8.512;2023-09-08T01:05:35;18.60;5.10
6443;DHT22;3254;47.372;8.512;2023-09-08T01:08:00;18.60;6.50
6443;DHT22;3254;47.372;8.512;2023-09-08T01:10:30;18.60;7.00
6443;DHT22;3254;47.372;8.512;2023-09-08T01:12:57;18.50;8.30
6443;DHT22;3254;47.372;8.512;2023-09-08T01:15:24;18.60;9.00
6443;DHT22;3254;47.372;8.512;2023-09-08T01:17:52;18.60;9.90
6443;DHT22;3254;47.372;8.512;2023-09-08T01:20:42;18.50;11.50
6443;DHT22;3254;47.372;8.512;2023-09-08T01:23:21;18.50;12.40
6443;DHT22;3254;47.372;8.512;2023-09-08T01:26:07;18.40;14.60
6443;DHT22;3254;47.372;8.512;2023-09-08T01:28:36;18.50;15.70
6443;DHT22;3254;47.372;8.512;2023-09-08T01:31:02;18.50;15.40
6443;DHT22;3254;47.372;8.512;2023-09-08T01:33:29;18.50;15.20
6443;DHT22;3254;47.372;8.512;2023-09-08T01:35:56;18.40;15.30
6443;DHT22;3254;47.372;8.512;2023-09-08T01:38:23;18.40;15.80
6443;DHT22;3254;47.372;8.512;2023-09-08T01:40:49;18.40;15.90
6443;DHT22;3254;47.372;8.512;2023-09-08T01:43:14;18.40;16.70
6443;DHT22;3254;47.372;8.512;2023-09-08T01:45:42;18.40;17.60
6443;DHT22;3254;47.372;8.512;2023-09-08T01:48:08;18.40;18.30
6443;DHT22;3254;47.372;8.512;2023-09-08T01:50:34;18.50;15.80
6443;DHT22;3254;47.372;8.512;2023-09-08T01:52:59;18.40;13.90
6443;DHT22;3254;47.372;8.512;2023-09-08T01:55:25;18.40;14.50
6443;DHT22;3254;47.372;8.512;2023-09-08T01:57:50;18.40;15.90
6443;DHT22;3254;47.372;8.512;2023-09-08T02:00:16;18.30;16.50
6443;DHT22;3254;47.372;8.512;2023-09-08T02:02:42;18.20;17.00
6443;DHT22;3254;47.372;8.512;2023-09-08T02:05:08;18.20;19.40
6443;DHT22;3254;47.372;8.512;2023-09-08T02:07:35;18.10;21.00
6443;DHT22;3254;47.372;8.512;2023-09-08T02:10:00;18.10;22.60
6443;DHT22;3254;47.372;8.512;2023-09-08T02:12:27;18.10;24.10
6443;DHT22;3254;47.372;8.512;2023-09-08T02:14:53;18.10;23.50
6443;DHT22;3254;47.372;8.512;2023-09-08T02:17:18;18.00;24.00
6443;DHT22;3254;47.372;8.512;2023-09-08T02:19:44;18.00;26.00
6443;DHT22;3254;47.372;8.512;2023-09-08T02:22:12;18.00;27.20
6443;DHT22;3254;47.372;8.512;2023-09-08T02:24:37;18.10;27.40
6443;DHT22;3254;47.372;8.512;2023-09-08T02:27:03;18.20;23.80
6443;DHT22;3254;47.372;8.512;2023-09-08T02:29:29;18.10;24.70
6443;DHT22;3254;47.372;8.512;2023-09-08T02:31:54;18.10;26.20
6443;DHT22;3254;47.372;8.512;2023-09-08T02:34:20;18.00;27.20
6443;DHT22;3254;47.372;8.512;2023-09-08T02:36:46;17.90;29.50
6443;DHT22;3254;47.372;8.512;2023-09-08T02:39:13;17.90;31.90
6443;DHT22;3254;47.372;8.512;2023-09-08T02:41:40;18.00;32.20
6443;DHT22;3254;47.372;8.512;2023-09-08T02:44:05;18.00;32.30
6443;DHT22;3254;47.372;8.512;2023-09-08T02:46:31;18.00;31.90
6443;DHT22;3254;47.372;8.512;2023-09-08T02:48:57;18.00;30.90
6443;DHT22;3254;47.372;8.512;2023-09-08T02:51:22;17.90;32.40
6443;DHT22;3254;47.372;8.512;2023-09-08T02:53:49;17.80;33.50
6443;DHT22;3254;47.372;8.512;2023-09-08T02:56:15;17.70;37.30
6443;DHT22;3254;47.372;8.512;2023-09-08T02:58:40;17.70;37.40
6443;DHT22;3254;47.372;8.512;2023-09-08T03:01:15;17.70;38.20
6443;DHT22;3254;47.372;8.512;2023-09-08T03:03:44;17.70;39.50
6443;DHT22;3254;47.372;8.512;2023-09-08T03:06:10;17.80;39.80
6443;DHT22;3254;47.372;8.512;2023-09-08T03:08:36;17.70;39.60
6443;DHT22;3254;47.372;8.512;2023-09-08T03:11:03;17.70;40.50
6443;DHT22;3254;47.372;8.512;2023-09-08T03:13:29;17.60;40.90
6443;DHT22;3254;47.372;8.512;2023-09-08T03:15:55;17.50;42.90
6443;DHT22;3254;47.372;8.512;2023-09-08T03:18:23;17.50;46.20
6443;DHT22;3254;47.372;8.512;2023-09-08T03:20:50;17.60;48.40
6443;DHT22;3254;47.372;8.512;2023-09-08T03:23:16;17.60;48.80
6443;DHT22;3254;47.372;8.512;2023-09-08T03:25:43;17.60;47.60
6443;DHT22;3254;47.372;8.512;2023-09-08T03:28:09;17.60;47.70
6443;DHT22;3254;47.372;8.512;2023-09-08T03:30:35;17.50;48.50
6443;DHT22;3254;47.372;8.512;2023-09-08T03:33:00;17.50;49.20
6443;DHT22;3254;47.372;8.512;2023-09-08T03:35:26;17.50;52.20
6443;DHT22;3254;47.372;8.512;2023-09-08T03:37:52;17.50;53.20
6443;DHT22;3254;47.372;8.512;2023-09-08T03:40:18;17.40;53.00
6443;DHT22;3254;47.372;8.512;2023-09-08T03:42:45;17.40;57.40
6443;DHT22;3254;47.372;8.512;2023-09-08T03:45:10;17.30;58.10
6443;DHT22;3254;47.372;8.512;2023-09-08T03:47:36;17.30;58.90
6443;DHT22;3254;47.372;8.512;2023-09-08T03:50:01;17.30;61.40
6443;DHT22;3254;47.372;8.512;2023-09-08T03:52:27;17.30;61.60
6443;DHT22;3254;47.372;8.512;2023-09-08T03:54:52;17.20;64.30
6443;DHT22;3254;47.372;8.512;2023-09-08T03:57:18;17.10;66.10
6443;DHT22;3254;47.372;8.512;2023-09-08T03:59:45;17.10;70.30
6443;DHT22;3254;47.372;8.512;2023-09-08T04:02:11;17.20;74.20
6443;DHT22;3254;47.372;8.512;2023-09-08T04:04:39;17.20;76.30
6443;DHT22;3254;47.372;8.512;2023-09-08T04:07:04;17.20;76.40
6443;DHT22;3254;47.372;8.512;2023-09-08T04:09:30;17.20;76.70
6443;DHT22;3254;47.372;8.512;2023-09-08T04:11:57;17.20;76.60
6443;DHT22;3254;47.372;8.512;2023-09-08T04:14:22;17.20;75.60
6443;DHT22;3254;47.372;8.512;2023-09-08T04:16:53;17.20;76.00
6443;DHT22;3254;47.372;8.512;2023-09-08T04:19:19;17.10;77.00
6443;DHT22;3254;47.372;8.512;2023-09-08T04:21:44;17.00;78.80
6443;DHT22;3254;47.372;8.512;2023-09-08T04:24:10;17.10;85.10
6443;DHT22;3254;47.372;8.512;2023-09-08T04:26:36;17.20;85.30
6443;DHT22;3254;47.372;8.512;2023-09-08T04:29:03;17.20;80.80
6443;DHT22;3254;47.372;8.512;2023-09-08T04:31:29;17.20;78.70
6443;DHT22;3254;47.372;8.512;2023-09-08T04:33:54;17.10;77.80
6443;DHT22;3254;47.372;8.512;2023-09-08T04:36:20;17.10;80.70
6443;DHT22;3254;47.372;8.512;2023-09-08T04:38:45;17.10;80.40
6443;DHT22;3254;47.372;8.512;2023-09-08T04:41:11;17.10;78.40
6443;DHT22;3254;47.372;8.512;2023-09-08T04:43:37;17.10;80.10
6443;DHT22;3254;47.372;8.512;2023-09-08T04:46:04;17.10;79.40
6443;DHT22;3254;47.372;8.512;2023-09-08T04:48:31;17.00;79.20
6443;DHT22;3254;47.372;8.512;2023-09-08T04:50:57;17.00;79.70
6443;DHT22;3254;47.372;8.512;2023-09-08T04:53:22;17.00;81.70
6443;DHT22;3254;47.372;8.512;2023-09-08T04:55:48;17.00;82.50
6443;DHT22;3254;47.372;8.512;2023-09-08T04:58:14;17.00;82.50
6443;DHT22;3254;47.372;8.512;2023-09-08T05:00:41;17.00;82.20
6443;DHT22;3254;47.372;8.512;2023-09-08T05:03:07;17.00;82.30
6443;DHT22;3254;47.372;8.512;2023-09-08T05:05:32;16.90;82.90
6443;DHT22;3254;47.372;8.512;2023-09-08T05:07:58;16.90;84.20
6443;DHT22;3254;47.372;8.512;2023-09-08T05:10:24;16.90;85.40
6443;DHT22;3254;47.372;8.512;2023-09-08T05:12:50;17.00;86.70
6443;DHT22;3254;47.372;8.512;2023-09-08T05:15:19;17.00;85.50
6443;DHT22;3254;47.372;8.512;2023-09-08T05:17:48;17.00;83.60
6443;DHT22;3254;47.372;8.512;2023-09-08T05:20:15;17.00;84.80
6443;DHT22;3254;47.372;8.512;2023-09-08T05:22:43;17.00;85.10
6443;DHT22;3254;47.372;8.512;2023-09-08T05:25:10;17.10;86.70
6443;DHT22;3254;47.372;8.512;2023-09-08T05:27:36;17.10;86.00
6443;DHT22;3254;47.372;8.512;2023-09-08T05:30:01;17.10;86.30
6443;DHT22;3254;47.372;8.512;2023-09-08T05:32:28;17.20;85.90
6443;DHT22;3254;47.372;8.512;2023-09-08T05:34:55;17.20;85.40
6443;DHT22;3254;47.372;8.512;2023-09-08T05:37:20;17.30;82.70
6443;DHT22;3254;47.372;8.512;2023-09-08T05:39:46;17.30;78.80
6443;DHT22;3254;47.372;8.512;2023-09-08T05:42:11;17.30;77.60
6443;DHT22;3254;47.372;8.512;2023-09-08T05:44:37;17.30;77.30
6443;DHT22;3254;47.372;8.512;2023-09-08T05:47:02;17.30;77.60
6443;DHT22;3254;47.372;8.512;2023-09-08T05:49:28;17.30;78.00
6443;DHT22;3254;47.372;8.512;2023-09-08T05:51:56;17.40;75.40
6443;DHT22;3254;47.372;8.512;2023-09-08T05:54:22;17.50;74.20
6443;DHT22;3254;47.372;8.512;2023-09-08T05:56:47;17.50;73.40
6443;DHT22;3254;47.372;8.512;2023-09-08T05:59:13;17.60;70.80
6443;DHT22;3254;47.372;8.512;2023-09-08T06:01:41;17.70;67.20
6443;DHT22;3254;47.372;8.512;2023-09-08T06:04:07;17.70;65.00
6443;DHT22;3254;47.372;8.512;2023-09-08T06:06:33;17.80;62.20
6443;DHT22;3254;47.372;8.512;2023-09-08T06:08:59;17.80;60.20
6443;DHT22;3254;47.372;8.512;2023-09-08T06:11:25;17.90;59.20
6443;DHT22;3254;47.372;8.512;2023-09-08T06:13:53;18.00;57.00
6443;DHT22;3254;47.372;8.512;2023-09-08T06:16:25;18.10;54.10
6443;DHT22;3254;47.372;8.512;2023-09-08T06:18:51;18.10;52.10
6443;DHT22;3254;47.372;8.512;2023-09-08T06:21:17;18.20;49.30
6443;DHT22;3254;47.372;8.512;2023-09-08T06:23:42;18.30;47.80
6443;DHT22;3254;47.372;8.512;2023-09-08T06:26:09;18.40;45.90
6443;DHT22;3254;47.372;8.512;2023-09-08T06:28:35;18.50;41.90
6443;DHT22;3254;47.372;8.512;2023-09-08T06:31:02;18.50;37.50
6443;DHT22;3254;47.372;8.512;2023-09-08T06:33:27;18.60;36.90
6443;DHT22;3254;47.372;8.512;2023-09-08T06:35:53;18.70;32.10
6443;DHT22;3254;47.372;8.512;2023-09-08T06:38:19;18.80;31.50
6443;DHT22;3254;47.372;8.512;2023-09-08T06:40:46;18.90;28.10
6443;DHT22;3254;47.372;8.512;2023-09-08T06:43:11;18.90;25.70
6443;DHT22;3254;47.372;8.512;2023-09-08T06:45:38;19.00;24.80
6443;DHT22;3254;47.372;8.512;2023-09-08T06:48:07;19.10;23.30
6443;DHT22;3254;47.372;8.512;2023-09-08T06:50:32;19.10;20.00
6443;DHT22;3254;47.372;8.512;2023-09-08T06:52:58;19.20;18.70
6443;DHT22;3254;47.372;8.512;2023-09-08T06:55:25;19.30;17.60
6443;DHT22;3254;47.372;8.512;2023-09-08T06:57:52;19.40;15.70
6443;DHT22;3254;47.372;8.512;2023-09-08T07:00:41;19.50;12.90
6443;DHT22;3254;47.372;8.512;2023-09-08T07:03:07;19.60;10.20
6443;DHT22;3254;47.372;8.512;2023-09-08T07:05:39;19.70;8.00
6443;DHT22;3254;47.372;8.512;2023-09-08T07:08:07;19.80;4.30
6443;DHT22;3254;47.372;8.512;2023-09-08T07:10:34;19.80;2.30
6443;DHT22;3254;47.372;8.512;2023-09-08T07:12:59;20.00;1.00
6443;DHT22;3254;47.372;8.512;2023-09-08T07:15:28;20.10;1.00
6443;DHT22;3254;47.372;8.512;2023-09-08T07:17:55;20.20;1.00
6443;DHT22;3254;47.372;8.512;2023-09-08T07:20:21;20.20;1.00
6443;DHT22;3254;47.372;8.512;2023-09-08T07:22:46;20.30;1.00
6443;DHT22;3254;47.372;8.512;2023-09-08T07:25:12;20.40;1.00
6443;DHT22;3254;47.372;8.512;2023-09-08T07:27:38;20.50;1.00
6443;DHT22;3254;47.372;8.512;2023-09-08T07:30:04;20.60;1.00
6443;DHT22;3254;47.372;8.512;2023-09-08T07:32:30;21.00;1.00
6443;DHT22;3254;47.372;8.512;2023-09-08T07:34:56;22.00;1.00
6443;DHT22;3254;47.372;8.512;2023-09-08T07:37:22;23.00;1.00
6443;DHT22;3254;47.372;8.512;2023-09-08T07:39:50;24.10;1.00
6443;DHT22;3254;47.372;8.512;2023-09-08T07:42:15;24.90;1.00
6443;DHT22;3254;47.372;8.512;2023-09-08T07:44:41;25.80;1.00
6443;DHT22;3254;47.372;8.512;2023-09-08T07:47:07;26.40;1.00
6443;DHT22;3254;47.372;8.512;2023-09-08T07:49:36;26.80;1.00
6443;DHT22;3254;47.372;8.512;2023-09-08T07:52:01;27.60;1.00
6443;DHT22;3254;47.372;8.512;2023-09-08T07:54:29;28.30;1.00
6443;DHT22;3254;47.372;8.512;2023-09-08T07:56:55;28.60;1.00
6443;DHT22;3254;47.372;8.512;2023-09-08T07:59:22;28.80;1.00
6443;DHT22;3254;47.372;8.512;2023-09-08T08:01:47;28.90;1.00
6443;DHT22;3254;47.372;8.512;2023-09-08T08:04:13;29.10;1.00
6443;DHT22;3254;47.372;8.512;2023-09-08T08:06:39;29.30;1.00
6443;DHT22;3254;47.372;8.512;2023-09-08T08:09:04;29.40;1.00
6443;DHT22;3254;47.372;8.512;2023-09-08T08:11:30;29.50;1.00
6443;DHT22;3254;47.372;8.512;2023-09-08T08:13:56;29.80;1.00
6443;DHT22;3254;47.372;8.512;2023-09-08T08:16:24;29.90;1.00
6443;DHT22;3254;47.372;8.512;2023-09-08T08:18:49;30.10;1.00
6443;DHT22;3254;47.372;8.512;2023-09-08T08:21:15;30.40;1.00
6443;DHT22;3254;47.372;8.512;2023-09-08T08:23:42;30.70;1.00
6443;DHT22;3254;47.372;8.512;2023-09-08T08:26:08;31.00;1.00
6443;DHT22;3254;47.372;8.512;2023-09-08T08:28:34;31.20;1.00
6443;DHT22;3254;47.372;8.512;2023-09-08T08:31:00;31.00;1.00
6443;DHT22;3254;47.372;8.512;2023-09-08T08:33:25;31.10;1.00
6443;DHT22;3254;47.372;8.512;2023-09-08T08:35:52;31.30;1.00
6443;DHT22;3254;47.372;8.512;2023-09-08T08:38:19;31.50;1.00
6443;DHT22;3254;47.372;8.512;2023-09-08T08:40:46;32.00;1.00
6443;DHT22;3254;47.372;8.512;2023-09-08T08:43:12;32.20;1.00
6443;DHT22;3254;47.372;8.512;2023-09-08T08:45:41;32.70;1.00
6443;DHT22;3254;47.372;8.512;2023-09-08T08:48:07;33.10;1.00
6443;DHT22;3254;47.372;8.512;2023-09-08T08:50:35;33.30;1.00
6443;DHT22;3254;47.372;8.512;2023-09-08T08:53:01;33.10;1.00
6443;DHT22;3254;47.372;8.512;2023-09-08T08:55:30;33.50;1.00
6443;DHT22;3254;47.372;8.512;2023-09-08T08:58:04;33.60;1.00
6443;DHT22;3254;47.372;8.512;2023-09-08T09:00:34;33.70;1.00
6443;DHT22;3254;47.372;8.512;2023-09-08T09:03:01;33.90;1.00
6443;DHT22;3254;47.372;8.512;2023-09-08T09:05:31;34.20;1.00
6443;DHT22;3254;47.372;8.512;2023-09-08T09:07:59;34.30;1.00
6443;DHT22;3254;47.372;8.512;2023-09-08T09:10:31;34.40;1.00
6443;DHT22;3254;47.372;8.512;2023-09-08T09:12:57;34.30;1.00
6443;DHT22;3254;47.372;8.512;2023-09-08T09:15:31;34.50;1.00
6443;DHT22;3254;47.372;8.512;2023-09-08T09:18:04;34.60;1.00
6443;DHT22;3254;47.372;8.512;2023-09-08T09:20:32;35.00;1.00
6443;DHT22;3254;47.372;8.512;2023-09-08T09:22:58;35.30;1.00
6443;DHT22;3254;47.372;8.512;2023-09-08T09:25:26;35.60;1.00
6443;DHT22;3254;47.372;8.512;2023-09-08T09:28:00;36.10;1.00
6443;DHT22;3254;47.372;8.512;2023-09-08T09:30:26;35.30;1.00
6443;DHT22;3254;47.372;8.512;2023-09-08T09:33:01;34.80;1.00
6443;DHT22;3254;47.372;8.512;2023-09-08T09:38:06;33.90;1.00
6443;DHT22;3254;47.372;8.512;2023-09-08T09:40:33;34.30;1.00
6443;DHT22;3254;47.372;8.512;2023-09-08T09:43:00;34.80;1.00
6443;DHT22;3254;47.372;8.512;2023-09-08T09:45:26;34.90;1.00
6443;DHT22;3254;47.372;8.512;2023-09-08T09:47:52;35.30;1.00
6443;DHT22;3254;47.372;8.512;2023-09-08T09:50:37;35.80;1.00
6443;DHT22;3254;47.372;8.512;2023-09-08T09:53:13;36.10;1.00
6443;DHT22;3254;47.372;8.512;2023-09-08T09:55:40;36.90;1.00
6443;DHT22;3254;47.372;8.512;2023-09-08T09:58:09;37.20;1.00
6443;DHT22;3254;47.372;8.512;2023-09-08T10:00:40;37.80;1.00
6443;DHT22;3254;47.372;8.512;2023-09-08T10:03:13;38.40;1.00
6443;DHT22;3254;47.372;8.512;2023-09-08T10:05:40;38.50;1.00
6443;DHT22;3254;47.372;8.512;2023-09-08T10:08:08;37.70;1.00
6443;DHT22;3254;47.372;8.512;2023-09-08T10:10:33;37.50;1.00
6443;DHT22;3254;47.372;8.512;2023-09-08T10:13:05;36.70;1.00
6443;DHT22;3254;47.372;8.512;2023-09-08T10:15:33;37.30;1.00
6443;DHT22;3254;47.372;8.512;2023-09-08T10:18:03;37.30;1.00
6443;DHT22;3254;47.372;8.512;2023-09-08T10:20:39;36.60;1.00
6443;DHT22;3254;47.372;8.512;2023-09-08T10:23:07;37.20;1.00
6443;DHT22;3254;47.372;8.512;2023-09-08T10:25:42;37.70;1.00
6443;DHT22;3254;47.372;8.512;2023-09-08T10:28:09;38.00;1.00
6443;DHT22;3254;47.372;8.512;2023-09-08T10:30:35;37.70;1.00
6443;DHT22;3254;47.372;8.512;2023-09-08T10:33:02;37.70;1.00
6443;DHT22;3254;47.372;8.512;2023-09-08T10:35:28;38.40;1.00
6443;DHT22;3254;47.372;8.512;2023-09-08T10:40:50;38.10;1.00
6443;DHT22;3254;47.372;8.512;2023-09-08T10:43:15;38.30;1.00
6443;DHT22;3254;47.372;8.512;2023-09-08T10:45:41;38.90;1.00
6443;DHT22;3254;47.372;8.512;2023-09-08T10:48:08;39.30;1.00
6443;DHT22;3254;47.372;8.512;2023-09-08T10:50:39;40.00;1.00
6443;DHT22;3254;47.372;8.512;2023-09-08T10:53:09;40.40;1.00
6443;DHT22;3254;47.372;8.512;2023-09-08T10:55:49;41.00;1.00
6443;DHT22;3254;47.372;8.512;2023-09-08T11:01:21;41.40;1.00
6443;DHT22;3254;47.372;8.512;2023-09-08T11:03:54;41.00;1.00
6443;DHT22;3254;47.372;8.512;2023-09-08T11:06:23;41.10;1.00
6443;DHT22;3254;47.372;8.512;2023-09-08T11:08:52;41.40;1.00
6443;DHT22;3254;47.372;8.512;2023-09-08T11:11:19;41.70;1.00
6443;DHT22;3254;47.372;8.512;2023-09-08T11:13:44;41.40;1.00
6443;DHT22;3254;47.372;8.512;2023-09-08T11:16:14;41.40;1.00
6443;DHT22;3254;47.372;8.512;2023-09-08T11:18:42;40.80;1.00
6443;DHT22;3254;47.372;8.512;2023-09-08T11:21:09;40.60;1.00
6443;DHT22;3254;47.372;8.512;2023-09-08T11:23:37;40.50;1.00
6443;DHT22;3254;47.372;8.512;2023-09-08T11:26:03;40.00;1.00
6443;DHT22;3254;47.372;8.512;2023-09-08T11:28:29;39.50;1.00
6443;DHT22;3254;47.372;8.512;2023-09-08T11:30:56;39.90;1.00
6443;DHT22;3254;47.372;8.512;2023-09-08T11:33:25;40.90;1.00
6443;DHT22;3254;47.372;8.512;2023-09-08T11:35:54;41.20;1.00
6443;DHT22;3254;47.372;8.512;2023-09-08T11:38:27;41.40;1.00
6443;DHT22;3254;47.372;8.512;2023-09-08T11:40:54;41.30;1.00
6443;DHT22;3254;47.372;8.512;2023-09-08T11:43:21;41.40;1.00
6443;DHT22;3254;47.372;8.512;2023-09-08T11:45:47;41.70;1.00
6443;DHT22;3254;47.372;8.512;2023-09-08T11:48:14;41.90;1.00
6443;DHT22;3254;47.372;8.512;2023-09-08T11:50:42;42.10;1.00
6443;DHT22;3254;47.372;8.512;2023-09-08T11:53:08;42.10;1.00
6443;DHT22;3254;47.372;8.512;2023-09-08T11:55:34;42.50;1.00
6443;DHT22;3254;47.372;8.512;2023-09-08T11:58:03;42.80;1.00
6443;DHT22;3254;47.372;8.512;2023-09-08T12:00:32;43.10;1.00
6443;DHT22;3254;47.372;8.512;2023-09-08T12:03:12;43.40;1.00
6443;DHT22;3254;47.372;8.512;2023-09-08T12:05:38;43.10;1.00
6443;DHT22;3254;47.372;8.512;2023-09-08T12:08:05;42.40;1.00
6443;DHT22;3254;47.372;8.512;2023-09-08T12:10:41;42.00;1.00
6443;DHT22;3254;47.372;8.512;2023-09-08T12:13:08;41.90;1.00
6443;DHT22;3254;47.372;8.512;2023-09-08T12:15:40;42.50;1.00
6443;DHT22;3254;47.372;8.512;2023-09-08T12:18:09;41.70;1.00
6443;DHT22;3254;47.372;8.512;2023-09-08T12:20:37;42.10;1.00
6443;DHT22;3254;47.372;8.512;2023-09-08T12:23:05;42.90;1.00
6443;DHT22;3254;47.372;8.512;2023-09-08T12:25:33;42.50;1.00
6443;DHT22;3254;47.372;8.512;2023-09-08T12:28:00;42.60;1.00
6443;DHT22;3254;47.372;8.512;2023-09-08T12:30:28;42.70;1.00
6443;DHT22;3254;47.372;8.512;2023-09-08T12:32:59;42.30;1.00
6443;DHT22;3254;47.372;8.512;2023-09-08T12:35:26;42.00;1.00
6443;DHT22;3254;47.372;8.512;2023-09-08T12:37:58;42.00;1.00
6443;DHT22;3254;47.372;8.512;2023-09-08T12:40:27;41.90;1.00
6443;DHT22;3254;47.372;8.512;2023-09-08T12:42:57;40.90;1.00
6443;DHT22;3254;47.372;8.512;2023-09-08T12:45:26;42.00;1.00
6443;DHT22;3254;47.372;8.512;2023-09-08T12:47:53;41.80;1.00
6443;DHT22;3254;47.372;8.512;2023-09-08T12:50:23;41.70;1.00
6443;DHT22;3254;47.372;8.512;2023-09-08T12:52:50;41.40;1.00
6443;DHT22;3254;47.372;8.512;2023-09-08T12:55:17;41.40;1.00
6443;DHT22;3254;47.372;8.512;2023-09-08T12:57:44;41.70;1.00
6443;DHT22;3254;47.372;8.512;2023-09-08T13:00:10;41.40;1.00
6443;DHT22;3254;47.372;8.512;2023-09-08T13:02:35;41.00;1.00
6443;DHT22;3254;47.372;8.512;2023-09-08T13:05:02;41.00;1.00
6443;DHT22;3254;47.372;8.512;2023-09-08T13:07:28;41.10;1.00
6443;DHT22;3254;47.372;8.512;2023-09-08T13:09:54;41.20;1.00
6443;DHT22;3254;47.372;8.512;2023-09-08T13:12:19;42.00;1.00
6443;DHT22;3254;47.372;8.512;2023-09-08T13:14:45;42.20;1.00
6443;DHT22;3254;47.372;8.512;2023-09-08T13:17:12;42.90;1.00
6443;DHT22;3254;47.372;8.512;2023-09-08T13:19:39;42.80;1.00
6443;DHT22;3254;47.372;8.512;2023-09-08T13:22:05;43.00;1.00
6443;DHT22;3254;47.372;8.512;2023-09-08T13:24:33;43.50;1.00
6443;DHT22;3254;47.372;8.512;2023-09-08T13:27:00;43.40;1.00
6443;DHT22;3254;47.372;8.512;2023-09-08T13:29:27;43.60;1.00
6443;DHT22;3254;47.372;8.512;2023-09-08T13:31:54;43.50;1.00
6443;DHT22;3254;47.372;8.512;2023-09-08T13:34:23;43.10;1.00
6443;DHT22;3254;47.372;8.512;2023-09-08T13:36:49;42.90;1.00
6443;DHT22;3254;47.372;8.512;2023-09-08T13:39:15;43.00;1.00
6443;DHT22;3254;47.372;8.512;2023-09-08T13:44:36;43.10;1.00
6443;DHT22;3254;47.372;8.512;2023-09-08T13:47:04;42.90;1.00
6443;DHT22;3254;47.372;8.512;2023-09-08T13:49:30;43.10;1.00
6443;DHT22;3254;47.372;8.512;2023-09-08T13:51:56;43.20;1.00
6443;DHT22;3254;47.372;8.512;2023-09-08T13:54:22;43.30;1.00
6443;DHT22;3254;47.372;8.512;2023-09-08T13:56:58;43.60;1.00
6443;DHT22;3254;47.372;8.512;2023-09-08T13:59:26;43.90;1.00
6443;DHT22;3254;47.372;8.512;2023-09-08T14:01:54;44.50;1.00
6443;DHT22;3254;47.372;8.512;2023-09-08T14:04:19;44.70;1.00
6443;DHT22;3254;47.372;8.512;2023-09-08T14:06:45;44.20;1.00
6443;DHT22;3254;47.372;8.512;2023-09-08T14:09:11;43.50;1.00
6443;DHT22;3254;47.372;8.512;2023-09-08T14:11:38;42.70;1.00
6443;DHT22;3254;47.372;8.512;2023-09-08T14:14:03;42.90;1.00
6443;DHT22;3254;47.372;8.512;2023-09-08T14:16:30;42.70;1.00
6443;DHT22;3254;47.372;8.512;2023-09-08T14:18:58;42.80;1.00
6443;DHT22;3254;47.372;8.512;2023-09-08T14:21:23;42.80;1.00
6443;DHT22;3254;47.372;8.512;2023-09-08T14:23:50;43.10;1.00
6443;DHT22;3254;47.372;8.512;2023-09-08T14:26:16;43.30;1.00
6443;DHT22;3254;47.372;8.512;2023-09-08T14:28:42;43.00;1.00
6443;DHT22;3254;47.372;8.512;2023-09-08T14:31:09;42.70;1.00
6443;DHT22;3254;47.372;8.512;2023-09-08T14:33:35;43.20;1.00
6443;DHT22;3254;47.372;8.512;2023-09-08T14:36:00;43.10;1.00
6443;DHT22;3254;47.372;8.512;2023-09-08T14:38:26;43.00;1.00
6443;DHT22;3254;47.372;8.512;2023-09-08T14:41:01;43.10;1.00
6443;DHT22;3254;47.372;8.512;2023-09-08T14:43:28;43.10;1.00
6443;DHT22;3254;47.372;8.512;2023-09-08T14:45:54;43.70;1.00
6443;DHT22;3254;47.372;8.512;2023-09-08T14:48:25;44.60;1.00
6443;DHT22;3254;47.372;8.512;2023-09-08T14:50:52;45.10;1.00
6443;DHT22;3254;47.372;8.512;2023-09-08T14:53:18;45.50;1.00
6443;DHT22;3254;47.372;8.512;2023-09-08T14:55:44;45.20;1.00
6443;DHT22;3254;47.372;8.512;2023-09-08T14:58:11;43.90;1.00
6443;DHT22;3254;47.372;8.512;2023-09-08T15:00:39;42.90;1.00
6443;DHT22;3254;47.372;8.512;2023-09-08T15:03:06;42.50;1.00
6443;DHT22;3254;47.372;8.512;2023-09-08T15:05:33;42.80;1.00
6443;DHT22;3254;47.372;8.512;2023-09-08T15:07:59;43.20;1.00
6443;DHT22;3254;47.372;8.512;2023-09-08T15:10:25;42.80;1.00
6443;DHT22;3254;47.372;8.512;2023-09-08T15:12:51;43.50;1.00
6443;DHT22;3254;47.372;8.512;2023-09-08T15:15:18;43.90;1.00
6443;DHT22;3254;47.372;8.512;2023-09-08T15:17:52;44.20;1.00
6443;DHT22;3254;47.372;8.512;2023-09-08T15:20:20;43.50;1.00
6443;DHT22;3254;47.372;8.512;2023-09-08T15:22:45;43.10;1.00
6443;DHT22;3254;47.372;8.512;2023-09-08T15:25:12;42.80;1.00
6443;DHT22;3254;47.372;8.512;2023-09-08T15:27:40;42.80;1.00
6443;DHT22;3254;47.372;8.512;2023-09-08T15:30:10;42.80;1.00
6443;DHT22;3254;47.372;8.512;2023-09-08T15:32:36;43.50;1.00
6443;DHT22;3254;47.372;8.512;2023-09-08T15:35:06;43.50;1.00
6443;DHT22;3254;47.372;8.512;2023-09-08T15:37:32;42.90;1.00
6443;DHT22;3254;47.372;8.512;2023-09-08T15:40:00;42.60;1.00
6443;DHT22;3254;47.372;8.512;2023-09-08T15:42:26;42.70;1.00
6443;DHT22;3254;47.372;8.512;2023-09-08T15:44:51;42.90;1.00
6443;DHT22;3254;47.372;8.512;2023-09-08T15:47:17;43.10;1.00
6443;DHT22;3254;47.372;8.512;2023-09-08T15:49:45;43.10;1.00
6443;DHT22;3254;47.372;8.512;2023-09-08T15:52:11;43.30;1.00
6443;DHT22;3254;47.372;8.512;2023-09-08T15:54:37;43.30;1.00
6443;DHT22;3254;47.372;8.512;2023-09-08T15:57:03;43.50;1.00
6443;DHT22;3254;47.372;8.512;2023-09-08T15:59:30;43.70;1.00
6443;DHT22;3254;47.372;8.512;2023-09-08T16:01:56;43.90;1.00
6443;DHT22;3254;47.372;8.512;2023-09-08T16:04:23;43.80;1.00
6443;DHT22;3254;47.372;8.512;2023-09-08T16:06:49;43.20;1.00
6443;DHT22;3254;47.372;8.512;2023-09-08T16:09:16;43.10;1.00
6443;DHT22;3254;47.372;8.512;2023-09-08T16:11:42;42.40;1.00
6443;DHT22;3254;47.372;8.512;2023-09-08T16:14:10;42.30;1.00
6443;DHT22;3254;47.372;8.512;2023-09-08T16:16:35;42.60;1.00
6443;DHT22;3254;47.372;8.512;2023-09-08T16:19:05;42.80;1.00
6443;DHT22;3254;47.372;8.512;2023-09-08T16:21:33;42.80;1.00
6443;DHT22;3254;47.372;8.512;2023-09-08T16:24:00;42.80;1.00